sensor_id;sensor_type;location;lat;lon;timestamp;P1;durP1;ratioP1;P2;durP2;ratioP2
21175;SDS011;10746;50.178;8.186;2023-05-10T00:00:39;0.80;;;0.80;;
21175;SDS011;10746;50.178;8.186;2023-05-10T00:03:07;1.13;;;0.82;;
21175;SDS011;10746;50.178;8.186;2023-05-10T00:05:33;0.70;;;0.70;;
21175;SDS011;10746;50.178;8.186;2023-05-10T00:08:01;0.68;;;0.68;;
21175;SDS011;10746;50.178;8.186;2023-05-10T00:10:28;0.90;;;0.90;;
21175;SDS011;10746;50.178;8.186;2023-05-10T00:12:55;2.75;;;1.00;;
21175;SDS011;10746;50.178;8.186;2023-05-10T00:15:22;0.80;;;0.80;;
21175;SDS011;10746;50.178;8.186;2023-05-10T00:17:48;1.00;;;1.00;;
21175;SDS011;10746;50.178;8.186;2023-05-10T00:20:15;1.00;;;0.90;;
21175;SDS011;10746;50.178;8.186;2023-05-10T00:22:42;0.80;;;0.80;;
21175;SDS011;10746;50.178;8.186;2023-05-10T00:25:10;0.88;;;0.70;;
21175;SDS011;10746;50.178;8.186;2023-05-10T00:27:36;0.68;;;0.68;;
21175;SDS011;10746;50.178;8.186;2023-05-10T00:30:03;1.17;;;0.60;;
21175;SDS011;10746;50.178;8.186;2023-05-10T00:32:31;0.80;;;0.80;;
21175;SDS011;10746;50.178;8.186;2023-05-10T00:34:58;1.27;;;1.00;;
21175;SDS011;10746;50.178;8.186;2023-05-10T00:37:24;1.75;;;0.70;;
21175;SDS011;10746;50.178;8.186;2023-05-10T00:39:51;1.50;;;0.93;;
21175;SDS011;10746;50.178;8.186;2023-05-10T00:42:19;1.02;;;0.90;;
21175;SDS011;10746;50.178;8.186;2023-05-10T00:44:46;1.30;;;1.20;;
21175;SDS011;10746;50.178;8.186;2023-05-10T00:47:12;1.10;;;1.10;;
21175;SDS011;10746;50.178;8.186;2023-05-10T00:49:39;0.90;;;0.90;;
21175;SDS011;10746;50.178;8.186;2023-05-10T00:52:06;1.38;;;0.80;;
21175;SDS011;10746;50.178;8.186;2023-05-10T00:54:34;2.75;;;0.90;;
21175;SDS011;10746;50.178;8.186;2023-05-10T00:57:00;0.80;;;0.80;;
21175;SDS011;10746;50.178;8.186;2023-05-10T00:59:29;0.85;;;0.85;;
21175;SDS011;10746;50.178;8.186;2023-05-10T01:01:56;0.73;;;0.73;;
21175;SDS011;10746;50.178;8.186;2023-05-10T01:04:24;1.00;;;1.00;;
21175;SDS011;10746;50.178;8.186;2023-05-10T01:06:51;0.80;;;0.80;;
21175;SDS011;10746;50.178;8.186;2023-05-10T01:09:18;3.70;;;0.85;;
21175;SDS011;10746;50.178;8.186;2023-05-10T01:11:45;1.00;;;1.00;;
21175;SDS011;10746;50.178;8.186;2023-05-10T01:14:13;1.35;;;1.25;;
21175;SDS011;10746;50.178;8.186;2023-05-10T01:16:45;0.90;;;0.90;;
21175;SDS011;10746;50.178;8.186;2023-05-10T01:19:16;1.02;;;0.90;;
21175;SDS011;10746;50.178;8.186;2023-05-10T01:21:49;1.17;;;0.98;;
21175;SDS011;10746;50.178;8.186;2023-05-10T01:24:35;1.00;;;1.00;;
21175;SDS011;10746;50.178;8.186;2023-05-10T01:27:25;1.00;;;1.00;;
21175;SDS011;10746;50.178;8.186;2023-05-10T01:30:16;1.08;;;1.08;;
21175;SDS011;10746;50.178;8.186;2023-05-10T01:33:09;2.25;;;1.00;;
21175;SDS011;10746;50.178;8.186;2023-05-10T01:35:41;1.00;;;1.00;;
21175;SDS011;10746;50.178;8.186;2023-05-10T01:38:16;1.20;;;1.20;;
21175;SDS011;10746;50.178;8.186;2023-05-10T01:40:48;1.17;;;1.17;;
21175;SDS011;10746;50.178;8.186;2023-05-10T01:43:26;1.00;;;1.00;;
21175;SDS011;10746;50.178;8.186;2023-05-10T01:45:59;1.17;;;1.17;;
21175;SDS011;10746;50.178;8.186;2023-05-10T01:48:36;1.35;;;0.90;;
21175;SDS011;10746;50.178;8.186;2023-05-10T01:51:06;1.00;;;1.00;;
21175;SDS011;10746;50.178;8.186;2023-05-10T01:53:33;1.15;;;1.15;;
21175;SDS011;10746;50.178;8.186;2023-05-10T01:56:03;1.17;;;1.00;;
21175;SDS011;10746;50.178;8.186;2023-05-10T01:58:31;1.20;;;1.20;;
21175;SDS011;10746;50.178;8.186;2023-05-10T02:01:01;1.20;;;1.10;;
21175;SDS011;10746;50.178;8.186;2023-05-10T02:03:30;1.20;;;1.20;;
21175;SDS011;10746;50.178;8.186;2023-05-10T02:06:01;1.30;;;1.30;;
21175;SDS011;10746;50.178;8.186;2023-05-10T02:08:29;2.03;;;1.10;;
21175;SDS011;10746;50.178;8.186;2023-05-10T02:10:56;1.38;;;1.27;;
21175;SDS011;10746;50.178;8.186;2023-05-10T02:13:25;1.10;;;1.10;;
21175;SDS011;10746;50.178;8.186;2023-05-10T02:15:53;1.33;;;1.30;;
21175;SDS011;10746;50.178;8.186;2023-05-10T02:18:21;2.58;;;1.10;;
21175;SDS011;10746;50.178;8.186;2023-05-10T02:20:49;1.80;;;1.20;;
21175;SDS011;10746;50.178;8.186;2023-05-10T02:23:19;1.40;;;1.30;;
21175;SDS011;10746;50.178;8.186;2023-05-10T02:25:47;1.20;;;1.20;;
21175;SDS011;10746;50.178;8.186;2023-05-10T02:28:15;1.52;;;1.20;;
21175;SDS011;10746;50.178;8.186;2023-05-10T02:30:43;1.23;;;1.20;;
21175;SDS011;10746;50.178;8.186;2023-05-10T02:33:10;2.17;;;1.20;;
21175;SDS011;10746;50.178;8.186;2023-05-10T02:35:37;1.40;;;1.30;;
21175;SDS011;10746;50.178;8.186;2023-05-10T02:38:04;1.50;;;1.38;;
21175;SDS011;10746;50.178;8.186;2023-05-10T02:40:34;1.05;;;1.02;;
21175;SDS011;10746;50.178;8.186;2023-05-10T02:43:02;1.10;;;1.10;;
21175;SDS011;10746;50.178;8.186;2023-05-10T02:45:32;0.93;;;0.93;;
21175;SDS011;10746;50.178;8.186;2023-05-10T02:47:59;1.13;;;1.13;;
21175;SDS011;10746;50.178;8.186;2023-05-10T02:50:27;1.80;;;1.20;;
21175;SDS011;10746;50.178;8.186;2023-05-10T02:52:58;1.27;;;1.25;;
21175;SDS011;10746;50.178;8.186;2023-05-10T02:55:27;1.50;;;1.40;;
21175;SDS011;10746;50.178;8.186;2023-05-10T02:58:00;3.33;;;1.80;;
21175;SDS011;10746;50.178;8.186;2023-05-10T03:00:28;1.55;;;1.55;;
21175;SDS011;10746;50.178;8.186;2023-05-10T03:02:55;2.95;;;1.73;;
21175;SDS011;10746;50.178;8.186;2023-05-10T03:05:22;1.63;;;1.52;;
21175;SDS011;10746;50.178;8.186;2023-05-10T03:07:48;1.70;;;1.70;;
21175;SDS011;10746;50.178;8.186;2023-05-10T03:10:16;1.60;;;1.60;;
21175;SDS011;10746;50.178;8.186;2023-05-10T03:12:56;1.67;;;1.60;;
21175;SDS011;10746;50.178;8.186;2023-05-10T03:15:34;2.15;;;1.77;;
21175;SDS011;10746;50.178;8.186;2023-05-10T03:18:10;1.83;;;1.73;;
21175;SDS011;10746;50.178;8.186;2023-05-10T03:20:41;1.48;;;1.48;;
21175;SDS011;10746;50.178;8.186;2023-05-10T03:23:13;1.60;;;1.60;;
21175;SDS011;10746;50.178;8.186;2023-05-10T03:25:48;1.77;;;1.70;;
21175;SDS011;10746;50.178;8.186;2023-05-10T03:28:18;1.55;;;1.52;;
21175;SDS011;10746;50.178;8.186;2023-05-10T03:30:55;1.92;;;1.80;;
21175;SDS011;10746;50.178;8.186;2023-05-10T03:33:22;2.00;;;1.90;;
21175;SDS011;10746;50.178;8.186;2023-05-10T03:35:49;2.05;;;1.70;;
21175;SDS011;10746;50.178;8.186;2023-05-10T03:38:16;2.97;;;1.83;;
21175;SDS011;10746;50.178;8.186;2023-05-10T03:40:42;2.15;;;2.05;;
21175;SDS011;10746;50.178;8.186;2023-05-10T03:43:09;2.30;;;2.10;;
21175;SDS011;10746;50.178;8.186;2023-05-10T03:45:37;2.30;;;2.20;;
21175;SDS011;10746;50.178;8.186;2023-05-10T03:48:05;3.53;;;2.10;;
21175;SDS011;10746;50.178;8.186;2023-05-10T03:50:31;4.47;;;2.30;;
21175;SDS011;10746;50.178;8.186;2023-05-10T03:52:58;2.25;;;1.98;;
21175;SDS011;10746;50.178;8.186;2023-05-10T03:55:25;3.45;;;2.10;;
21175;SDS011;10746;50.178;8.186;2023-05-10T03:57:51;4.93;;;2.20;;
21175;SDS011;10746;50.178;8.186;2023-05-10T04:00:19;3.20;;;2.25;;
21175;SDS011;10746;50.178;8.186;2023-05-10T04:02:47;5.28;;;2.70;;
21175;SDS011;10746;50.178;8.186;2023-05-10T04:05:14;2.25;;;2.15;;
21175;SDS011;10746;50.178;8.186;2023-05-10T04:07:40;2.08;;;1.90;;
21175;SDS011;10746;50.178;8.186;2023-05-10T04:10:09;2.72;;;2.53;;
21175;SDS011;10746;50.178;8.186;2023-05-10T04:12:36;2.50;;;2.30;;
21175;SDS011;10746;50.178;8.186;2023-05-10T04:15:03;4.00;;;2.15;;
21175;SDS011;10746;50.178;8.186;2023-05-10T04:17:30;3.55;;;2.40;;
21175;SDS011;10746;50.178;8.186;2023-05-10T04:19:58;4.05;;;2.45;;
21175;SDS011;10746;50.178;8.186;2023-05-10T04:22:25;2.60;;;2.40;;
21175;SDS011;10746;50.178;8.186;2023-05-10T04:24:52;4.40;;;2.25;;
21175;SDS011;10746;50.178;8.186;2023-05-10T04:27:19;3.60;;;2.10;;
21175;SDS011;10746;50.178;8.186;2023-05-10T04:29:46;2.15;;;2.05;;
21175;SDS011;10746;50.178;8.186;2023-05-10T04:32:12;2.80;;;2.60;;
21175;SDS011;10746;50.178;8.186;2023-05-10T04:34:41;4.95;;;2.40;;
21175;SDS011;10746;50.178;8.186;2023-05-10T04:37:09;2.13;;;2.03;;
21175;SDS011;10746;50.178;8.186;2023-05-10T04:39:35;2.20;;;2.10;;
21175;SDS011;10746;50.178;8.186;2023-05-10T04:42:02;2.58;;;2.38;;
21175;SDS011;10746;50.178;8.186;2023-05-10T04:44:30;2.25;;;2.15;;
21175;SDS011;10746;50.178;8.186;2023-05-10T04:46:57;2.83;;;2.30;;
21175;SDS011;10746;50.178;8.186;2023-05-10T04:49:24;2.50;;;2.30;;
21175;SDS011;10746;50.178;8.186;2023-05-10T04:51:51;3.97;;;2.42;;
21175;SDS011;10746;50.178;8.186;2023-05-10T04:54:19;2.65;;;2.45;;
21175;SDS011;10746;50.178;8.186;2023-05-10T04:56:45;3.28;;;2.92;;
21175;SDS011;10746;50.178;8.186;2023-05-10T04:59:12;3.17;;;2.88;;
21175;SDS011;10746;50.178;8.186;2023-05-10T05:01:39;2.28;;;2.17;;
21175;SDS011;10746;50.178;8.186;2023-05-10T05:04:05;3.38;;;2.70;;
21175;SDS011;10746;50.178;8.186;2023-05-10T05:06:32;6.55;;;3.08;;
21175;SDS011;10746;50.178;8.186;2023-05-10T05:08:59;3.10;;;2.80;;
21175;SDS011;10746;50.178;8.186;2023-05-10T05:11:27;4.03;;;3.15;;
21175;SDS011;10746;50.178;8.186;2023-05-10T05:13:54;3.28;;;2.97;;
21175;SDS011;10746;50.178;8.186;2023-05-10T05:16:20;3.05;;;2.80;;
21175;SDS011;10746;50.178;8.186;2023-05-10T05:18:47;4.47;;;3.30;;
21175;SDS011;10746;50.178;8.186;2023-05-10T05:21:14;6.18;;;3.33;;
21175;SDS011;10746;50.178;8.186;2023-05-10T05:23:41;3.30;;;3.00;;
21175;SDS011;10746;50.178;8.186;2023-05-10T05:26:08;3.33;;;3.03;;
21175;SDS011;10746;50.178;8.186;2023-05-10T05:28:37;7.97;;;2.90;;
21175;SDS011;10746;50.178;8.186;2023-05-10T05:31:04;7.72;;;3.05;;
21175;SDS011;10746;50.178;8.186;2023-05-10T05:33:32;3.67;;;2.88;;
21175;SDS011;10746;50.178;8.186;2023-05-10T05:35:59;2.90;;;2.67;;
21175;SDS011;10746;50.178;8.186;2023-05-10T05:38:26;2.95;;;2.72;;
21175;SDS011;10746;50.178;8.186;2023-05-10T05:40:53;3.15;;;2.58;;
21175;SDS011;10746;50.178;8.186;2023-05-10T05:43:20;2.95;;;2.75;;
21175;SDS011;10746;50.178;8.186;2023-05-10T05:45:48;4.80;;;2.30;;
21175;SDS011;10746;50.178;8.186;2023-05-10T05:48:14;2.85;;;2.60;;
21175;SDS011;10746;50.178;8.186;2023-05-10T05:50:41;3.60;;;2.90;;
21175;SDS011;10746;50.178;8.186;2023-05-10T05:53:08;2.60;;;2.40;;
21175;SDS011;10746;50.178;8.186;2023-05-10T05:55:35;3.28;;;2.20;;
21175;SDS011;10746;50.178;8.186;2023-05-10T05:58:02;4.68;;;2.30;;
21175;SDS011;10746;50.178;8.186;2023-05-10T06:00:28;2.72;;;2.50;;
21175;SDS011;10746;50.178;8.186;2023-05-10T06:02:56;6.78;;;2.55;;
21175;SDS011;10746;50.178;8.186;2023-05-10T06:05:23;2.20;;;2.10;;
21175;SDS011;10746;50.178;8.186;2023-05-10T06:07:50;3.03;;;2.22;;
21175;SDS011;10746;50.178;8.186;2023-05-10T06:10:16;17.08;;;2.72;;
21175;SDS011;10746;50.178;8.186;2023-05-10T06:12:43;4.85;;;2.40;;
21175;SDS011;10746;50.178;8.186;2023-05-10T06:15:10;4.88;;;2.60;;
21175;SDS011;10746;50.178;8.186;2023-05-10T06:17:37;5.43;;;3.10;;
21175;SDS011;10746;50.178;8.186;2023-05-10T06:20:06;2.50;;;2.30;;
21175;SDS011;10746;50.178;8.186;2023-05-10T06:22:33;4.63;;;2.13;;
21175;SDS011;10746;50.178;8.186;2023-05-10T06:25:00;2.38;;;2.20;;
21175;SDS011;10746;50.178;8.186;2023-05-10T06:27:27;2.22;;;2.10;;
21175;SDS011;10746;50.178;8.186;2023-05-10T06:29:54;3.40;;;2.10;;
21175;SDS011;10746;50.178;8.186;2023-05-10T06:32:20;2.30;;;2.10;;
21175;SDS011;10746;50.178;8.186;2023-05-10T06:34:47;1.95;;;1.85;;
21175;SDS011;10746;50.178;8.186;2023-05-10T06:37:15;4.43;;;2.45;;
21175;SDS011;10746;50.178;8.186;2023-05-10T06:39:42;2.60;;;2.30;;
21175;SDS011;10746;50.178;8.186;2023-05-10T06:42:09;2.58;;;2.38;;
21175;SDS011;10746;50.178;8.186;2023-05-10T06:44:35;2.50;;;2.30;;
21175;SDS011;10746;50.178;8.186;2023-05-10T06:47:02;3.05;;;2.40;;
21175;SDS011;10746;50.178;8.186;2023-05-10T06:49:29;2.38;;;1.80;;
21175;SDS011;10746;50.178;8.186;2023-05-10T06:51:56;2.33;;;2.08;;
21175;SDS011;10746;50.178;8.186;2023-05-10T06:54:24;2.40;;;2.20;;
21175;SDS011;10746;50.178;8.186;2023-05-10T06:56:50;2.60;;;2.00;;
21175;SDS011;10746;50.178;8.186;2023-05-10T06:59:17;2.28;;;2.08;;
21175;SDS011;10746;50.178;8.186;2023-05-10T07:01:46;3.00;;;2.53;;
21175;SDS011;10746;50.178;8.186;2023-05-10T07:04:13;6.80;;;2.40;;
21175;SDS011;10746;50.178;8.186;2023-05-10T07:06:39;2.35;;;2.05;;
21175;SDS011;10746;50.178;8.186;2023-05-10T07:09:06;1.90;;;1.80;;
21175;SDS011;10746;50.178;8.186;2023-05-10T07:11:35;2.33;;;2.13;;
21175;SDS011;10746;50.178;8.186;2023-05-10T07:14:02;6.10;;;2.25;;
21175;SDS011;10746;50.178;8.186;2023-05-10T07:16:29;2.47;;;2.20;;
21175;SDS011;10746;50.178;8.186;2023-05-10T07:18:56;2.55;;;2.35;;
21175;SDS011;10746;50.178;8.186;2023-05-10T07:21:22;3.05;;;2.40;;
21175;SDS011;10746;50.178;8.186;2023-05-10T07:23:49;2.55;;;2.20;;
21175;SDS011;10746;50.178;8.186;2023-05-10T07:26:16;2.63;;;2.40;;
21175;SDS011;10746;50.178;8.186;2023-05-10T07:28:44;6.15;;;3.65;;
21175;SDS011;10746;50.178;8.186;2023-05-10T07:31:11;7.22;;;2.63;;
21175;SDS011;10746;50.178;8.186;2023-05-10T07:33:38;2.40;;;2.20;;
21175;SDS011;10746;50.178;8.186;2023-05-10T07:36:05;4.47;;;2.67;;
21175;SDS011;10746;50.178;8.186;2023-05-10T07:38:32;4.30;;;2.42;;
21175;SDS011;10746;50.178;8.186;2023-05-10T07:40:59;2.22;;;2.08;;
21175;SDS011;10746;50.178;8.186;2023-05-10T07:43:25;3.17;;;2.30;;
21175;SDS011;10746;50.178;8.186;2023-05-10T07:45:53;3.55;;;2.38;;
21175;SDS011;10746;50.178;8.186;2023-05-10T07:48:22;2.80;;;2.47;;
21175;SDS011;10746;50.178;8.186;2023-05-10T07:50:49;3.13;;;2.22;;
21175;SDS011;10746;50.178;8.186;2023-05-10T07:53:15;4.53;;;2.53;;
21175;SDS011;10746;50.178;8.186;2023-05-10T07:55:43;2.95;;;2.40;;
21175;SDS011;10746;50.178;8.186;2023-05-10T07:58:10;5.43;;;2.40;;
21175;SDS011;10746;50.178;8.186;2023-05-10T08:00:37;3.15;;;2.53;;
21175;SDS011;10746;50.178;8.186;2023-05-10T08:03:05;2.85;;;2.15;;
21175;SDS011;10746;50.178;8.186;2023-05-10T08:05:32;3.80;;;2.33;;
21175;SDS011;10746;50.178;8.186;2023-05-10T08:07:59;2.85;;;2.40;;
21175;SDS011;10746;50.178;8.186;2023-05-10T08:10:25;2.88;;;2.53;;
21175;SDS011;10746;50.178;8.186;2023-05-10T08:12:52;4.07;;;2.47;;
21175;SDS011;10746;50.178;8.186;2023-05-10T08:15:19;5.32;;;2.60;;
21175;SDS011;10746;50.178;8.186;2023-05-10T08:17:45;2.50;;;2.13;;
21175;SDS011;10746;50.178;8.186;2023-05-10T08:20:13;4.60;;;2.72;;
21175;SDS011;10746;50.178;8.186;2023-05-10T08:22:41;2.60;;;2.40;;
21175;SDS011;10746;50.178;8.186;2023-05-10T08:25:08;3.25;;;2.95;;
21175;SDS011;10746;50.178;8.186;2023-05-10T08:27:35;2.88;;;2.47;;
21175;SDS011;10746;50.178;8.186;2023-05-10T08:30:01;2.70;;;2.10;;
21175;SDS011;10746;50.178;8.186;2023-05-10T08:32:28;2.35;;;2.10;;
21175;SDS011;10746;50.178;8.186;2023-05-10T08:34:55;5.75;;;2.70;;
21175;SDS011;10746;50.178;8.186;2023-05-10T08:37:24;5.78;;;2.20;;
21175;SDS011;10746;50.178;8.186;2023-05-10T08:39:50;5.22;;;2.30;;
21175;SDS011;10746;50.178;8.186;2023-05-10T08:42:19;6.78;;;2.67;;
21175;SDS011;10746;50.178;8.186;2023-05-10T08:44:48;4.18;;;2.55;;
21175;SDS011;10746;50.178;8.186;2023-05-10T08:47:16;2.97;;;2.50;;
21175;SDS011;10746;50.178;8.186;2023-05-10T08:49:45;4.85;;;2.42;;
21175;SDS011;10746;50.178;8.186;2023-05-10T08:52:15;3.47;;;2.20;;
21175;SDS011;10746;50.178;8.186;2023-05-10T08:54:44;7.43;;;2.08;;
21175;SDS011;10746;50.178;8.186;2023-05-10T08:57:11;4.57;;;2.45;;
21175;SDS011;10746;50.178;8.186;2023-05-10T08:59:38;4.22;;;2.42;;
21175;SDS011;10746;50.178;8.186;2023-05-10T09:02:05;5.32;;;2.33;;
21175;SDS011;10746;50.178;8.186;2023-05-10T09:04:34;6.10;;;2.40;;
21175;SDS011;10746;50.178;8.186;2023-05-10T09:07:01;4.57;;;2.50;;
21175;SDS011;10746;50.178;8.186;2023-05-10T09:09:28;9.63;;;2.30;;
21175;SDS011;10746;50.178;8.186;2023-05-10T09:11:56;4.13;;;1.80;;
21175;SDS011;10746;50.178;8.186;2023-05-10T09:14:23;3.20;;;2.20;;
21175;SDS011;10746;50.178;8.186;2023-05-10T09:16:51;4.85;;;1.80;;
21175;SDS011;10746;50.178;8.186;2023-05-10T09:19:19;1.98;;;1.80;;
21175;SDS011;10746;50.178;8.186;2023-05-10T09:21:45;2.15;;;1.90;;
21175;SDS011;10746;50.178;8.186;2023-05-10T09:24:12;3.45;;;1.80;;
21175;SDS011;10746;50.178;8.186;2023-05-10T09:26:45;1.52;;;1.45;;
21175;SDS011;10746;50.178;8.186;2023-05-10T09:29:15;1.77;;;1.67;;
21175;SDS011;10746;50.178;8.186;2023-05-10T09:31:45;3.65;;;2.65;;
21175;SDS011;10746;50.178;8.186;2023-05-10T09:34:16;3.33;;;1.95;;
21175;SDS011;10746;50.178;8.186;2023-05-10T09:36:50;3.97;;;2.15;;
21175;SDS011;10746;50.178;8.186;2023-05-10T09:39:18;2.03;;;1.92;;
21175;SDS011;10746;50.178;8.186;2023-05-10T09:41:45;2.42;;;2.22;;
21175;SDS011;10746;50.178;8.186;2023-05-10T09:44:14;1.20;;;1.20;;
21175;SDS011;10746;50.178;8.186;2023-05-10T09:46:43;2.35;;;1.40;;
21175;SDS011;10746;50.178;8.186;2023-05-10T09:49:15;1.20;;;1.20;;
21175;SDS011;10746;50.178;8.186;2023-05-10T09:51:41;1.52;;;1.10;;
21175;SDS011;10746;50.178;8.186;2023-05-10T09:54:09;3.28;;;1.10;;
21175;SDS011;10746;50.178;8.186;2023-05-10T09:56:36;1.25;;;1.20;;
21175;SDS011;10746;50.178;8.186;2023-05-10T09:59:05;1.15;;;1.08;;
21175;SDS011;10746;50.178;8.186;2023-05-10T10:01:34;2.05;;;1.30;;
21175;SDS011;10746;50.178;8.186;2023-05-10T10:04:02;2.20;;;1.20;;
21175;SDS011;10746;50.178;8.186;2023-05-10T10:06:34;4.10;;;1.10;;
21175;SDS011;10746;50.178;8.186;2023-05-10T10:09:02;1.10;;;1.10;;
21175;SDS011;10746;50.178;8.186;2023-05-10T10:11:28;1.23;;;1.15;;
21175;SDS011;10746;50.178;8.186;2023-05-10T10:13:55;1.65;;;1.10;;
21175;SDS011;10746;50.178;8.186;2023-05-10T10:16:22;1.20;;;1.20;;
21175;SDS011;10746;50.178;8.186;2023-05-10T10:18:51;1.30;;;1.20;;
21175;SDS011;10746;50.178;8.186;2023-05-10T10:21:18;1.15;;;1.10;;
21175;SDS011;10746;50.178;8.186;2023-05-10T10:23:45;1.20;;;1.10;;
21175;SDS011;10746;50.178;8.186;2023-05-10T10:26:12;1.23;;;0.93;;
21175;SDS011;10746;50.178;8.186;2023-05-10T10:28:41;2.38;;;1.17;;
21175;SDS011;10746;50.178;8.186;2023-05-10T10:31:17;1.10;;;1.10;;
21175;SDS011;10746;50.178;8.186;2023-05-10T10:33:58;3.25;;;1.40;;
21175;SDS011;10746;50.178;8.186;2023-05-10T10:36:27;8.48;;;1.40;;
21175;SDS011;10746;50.178;8.186;2023-05-10T10:38:56;3.17;;;1.10;;
21175;SDS011;10746;50.178;8.186;2023-05-10T10:41:27;1.38;;;0.90;;
21175;SDS011;10746;50.178;8.186;2023-05-10T10:46:59;1.15;;;0.90;;
21175;SDS011;10746;50.178;8.186;2023-05-10T10:49:37;0.90;;;0.90;;
21175;SDS011;10746;50.178;8.186;2023-05-10T10:52:23;0.95;;;0.95;;
21175;SDS011;10746;50.178;8.186;2023-05-10T10:54:56;0.90;;;0.90;;
21175;SDS011;10746;50.178;8.186;2023-05-10T10:57:25;0.88;;;0.88;;
21175;SDS011;10746;50.178;8.186;2023-05-10T10:59:54;1.45;;;0.98;;
21175;SDS011;10746;50.178;8.186;2023-05-10T11:02:49;0.98;;;0.98;;
21175;SDS011;10746;50.178;8.186;2023-05-10T11:05:25;2.00;;;1.00;;
21175;SDS011;10746;50.178;8.186;2023-05-10T11:08:00;3.70;;;0.90;;
21175;SDS011;10746;50.178;8.186;2023-05-10T11:10:32;3.22;;;0.85;;
21175;SDS011;10746;50.178;8.186;2023-05-10T11:12:59;0.90;;;0.90;;
21175;SDS011;10746;50.178;8.186;2023-05-10T11:15:30;0.85;;;0.85;;
21175;SDS011;10746;50.178;8.186;2023-05-10T11:17:58;1.17;;;0.90;;
21175;SDS011;10746;50.178;8.186;2023-05-10T11:20:28;0.90;;;0.90;;
21175;SDS011;10746;50.178;8.186;2023-05-10T11:23:10;0.90;;;0.90;;
21175;SDS011;10746;50.178;8.186;2023-05-10T11:25:41;0.70;;;0.70;;
21175;SDS011;10746;50.178;8.186;2023-05-10T11:28:09;0.80;;;0.80;;
21175;SDS011;10746;50.178;8.186;2023-05-10T11:30:36;3.75;;;0.85;;
21175;SDS011;10746;50.178;8.186;2023-05-10T11:33:04;0.93;;;0.93;;
21175;SDS011;10746;50.178;8.186;2023-05-10T11:35:33;0.85;;;0.75;;
21175;SDS011;10746;50.178;8.186;2023-05-10T11:38:05;3.22;;;1.10;;
21175;SDS011;10746;50.178;8.186;2023-05-10T11:40:32;2.38;;;0.80;;
21175;SDS011;10746;50.178;8.186;2023-05-10T11:42:59;3.00;;;0.90;;
21175;SDS011;10746;50.178;8.186;2023-05-10T11:45:26;0.77;;;0.77;;
21175;SDS011;10746;50.178;8.186;2023-05-10T11:47:53;0.80;;;0.80;;
21175;SDS011;10746;50.178;8.186;2023-05-10T11:50:20;1.00;;;1.00;;
21175;SDS011;10746;50.178;8.186;2023-05-10T11:52:51;0.85;;;0.85;;
21175;SDS011;10746;50.178;8.186;2023-05-10T11:55:18;0.70;;;0.70;;
21175;SDS011;10746;50.178;8.186;2023-05-10T11:57:45;1.90;;;0.70;;
21175;SDS011;10746;50.178;8.186;2023-05-10T12:00:12;0.73;;;0.73;;
21175;SDS011;10746;50.178;8.186;2023-05-10T12:02:39;0.93;;;0.80;;
21175;SDS011;10746;50.178;8.186;2023-05-10T12:05:06;5.88;;;1.10;;
21175;SDS011;10746;50.178;8.186;2023-05-10T12:07:34;0.80;;;0.80;;
21175;SDS011;10746;50.178;8.186;2023-05-10T12:10:08;0.80;;;0.80;;
21175;SDS011;10746;50.178;8.186;2023-05-10T12:12:39;0.60;;;0.60;;
21175;SDS011;10746;50.178;8.186;2023-05-10T12:15:10;1.38;;;0.90;;
21175;SDS011;10746;50.178;8.186;2023-05-10T12:17:38;3.50;;;0.68;;
21175;SDS011;10746;50.178;8.186;2023-05-10T12:20:15;0.68;;;0.68;;
21175;SDS011;10746;50.178;8.186;2023-05-10T12:22:46;1.40;;;0.80;;
21175;SDS011;10746;50.178;8.186;2023-05-10T12:25:16;9.07;;;1.05;;
21175;SDS011;10746;50.178;8.186;2023-05-10T12:27:50;2.17;;;0.90;;
21175;SDS011;10746;50.178;8.186;2023-05-10T12:30:21;0.70;;;0.70;;
21175;SDS011;10746;50.178;8.186;2023-05-10T12:32:48;2.55;;;0.85;;
21175;SDS011;10746;50.178;8.186;2023-05-10T12:35:15;0.90;;;0.70;;
21175;SDS011;10746;50.178;8.186;2023-05-10T12:37:45;1.00;;;0.90;;
21175;SDS011;10746;50.178;8.186;2023-05-10T12:40:12;1.17;;;0.77;;
21175;SDS011;10746;50.178;8.186;2023-05-10T12:42:40;0.80;;;0.80;;
21175;SDS011;10746;50.178;8.186;2023-05-10T12:45:08;3.20;;;0.90;;
21175;SDS011;10746;50.178;8.186;2023-05-10T12:47:35;2.50;;;0.80;;
21175;SDS011;10746;50.178;8.186;2023-05-10T12:50:03;0.98;;;0.70;;
21175;SDS011;10746;50.178;8.186;2023-05-10T12:52:31;0.80;;;0.80;;
21175;SDS011;10746;50.178;8.186;2023-05-10T12:54:58;0.90;;;0.90;;
21175;SDS011;10746;50.178;8.186;2023-05-10T12:57:25;0.80;;;0.80;;
21175;SDS011;10746;50.178;8.186;2023-05-10T12:59:53;3.40;;;1.05;;
21175;SDS011;10746;50.178;8.186;2023-05-10T13:02:20;1.08;;;1.08;;
21175;SDS011;10746;50.178;8.186;2023-05-10T13:04:48;0.82;;;0.82;;
21175;SDS011;10746;50.178;8.186;2023-05-10T13:07:15;0.98;;;0.98;;
21175;SDS011;10746;50.178;8.186;2023-05-10T13:09:41;1.05;;;1.00;;
21175;SDS011;10746;50.178;8.186;2023-05-10T13:12:08;1.40;;;1.10;;
21175;SDS011;10746;50.178;8.186;2023-05-10T13:14:35;0.80;;;0.80;;
21175;SDS011;10746;50.178;8.186;2023-05-10T13:17:03;1.00;;;1.00;;
21175;SDS011;10746;50.178;8.186;2023-05-10T13:19:30;0.98;;;0.98;;
21175;SDS011;10746;50.178;8.186;2023-05-10T13:21:56;0.93;;;0.70;;
21175;SDS011;10746;50.178;8.186;2023-05-10T13:24:23;2.60;;;0.88;;
21175;SDS011;10746;50.178;8.186;2023-05-10T13:26:50;0.70;;;0.70;;
21175;SDS011;10746;50.178;8.186;2023-05-10T13:29:17;1.00;;;1.00;;
21175;SDS011;10746;50.178;8.186;2023-05-10T13:31:44;1.08;;;1.08;;
21175;SDS011;10746;50.178;8.186;2023-05-10T13:34:12;2.30;;;1.00;;
21175;SDS011;10746;50.178;8.186;2023-05-10T13:36:38;0.90;;;0.90;;
21175;SDS011;10746;50.178;8.186;2023-05-10T13:39:06;0.90;;;0.90;;
21175;SDS011;10746;50.178;8.186;2023-05-10T13:41:33;2.70;;;0.70;;
21175;SDS011;10746;50.178;8.186;2023-05-10T13:44:00;1.02;;;0.80;;
21175;SDS011;10746;50.178;8.186;2023-05-10T13:46:26;1.02;;;0.93;;
21175;SDS011;10746;50.178;8.186;2023-05-10T13:48:53;2.42;;;0.98;;
21175;SDS011;10746;50.178;8.186;2023-05-10T13:51:21;1.92;;;0.90;;
21175;SDS011;10746;50.178;8.186;2023-05-10T13:53:48;2.22;;;0.90;;
21175;SDS011;10746;50.178;8.186;2023-05-10T13:56:14;1.92;;;1.30;;
21175;SDS011;10746;50.178;8.186;2023-05-10T13:58:41;1.00;;;1.00;;
21175;SDS011;10746;50.178;8.186;2023-05-10T14:01:08;0.70;;;0.70;;
21175;SDS011;10746;50.178;8.186;2023-05-10T14:03:35;1.42;;;0.88;;
21175;SDS011;10746;50.178;8.186;2023-05-10T14:06:01;0.60;;;0.60;;
21175;SDS011;10746;50.178;8.186;2023-05-10T14:08:30;1.45;;;1.00;;
21175;SDS011;10746;50.178;8.186;2023-05-10T14:10:56;0.80;;;0.80;;
21175;SDS011;10746;50.178;8.186;2023-05-10T14:13:23;0.70;;;0.70;;
21175;SDS011;10746;50.178;8.186;2023-05-10T14:15:50;0.70;;;0.70;;
21175;SDS011;10746;50.178;8.186;2023-05-10T14:18:18;3.45;;;0.70;;
21175;SDS011;10746;50.178;8.186;2023-05-10T14:20:45;1.00;;;1.00;;
21175;SDS011;10746;50.178;8.186;2023-05-10T14:23:11;1.10;;;1.00;;
21175;SDS011;10746;50.178;8.186;2023-05-10T14:25:40;0.90;;;0.90;;
21175;SDS011;10746;50.178;8.186;2023-05-10T14:28:07;1.17;;;1.08;;
21175;SDS011;10746;50.178;8.186;2023-05-10T14:30:33;1.85;;;1.02;;
21175;SDS011;10746;50.178;8.186;2023-05-10T14:33:01;1.00;;;1.00;;
21175;SDS011;10746;50.178;8.186;2023-05-10T14:35:28;1.95;;;1.10;;
21175;SDS011;10746;50.178;8.186;2023-05-10T14:37:55;1.33;;;1.23;;
21175;SDS011;10746;50.178;8.186;2023-05-10T14:40:22;1.85;;;1.13;;
21175;SDS011;10746;50.178;8.186;2023-05-10T14:42:51;1.40;;;1.30;;
21175;SDS011;10746;50.178;8.186;2023-05-10T14:45:18;2.67;;;1.00;;
21175;SDS011;10746;50.178;8.186;2023-05-10T14:47:46;0.90;;;0.90;;
21175;SDS011;10746;50.178;8.186;2023-05-10T14:50:13;0.90;;;0.90;;
21175;SDS011;10746;50.178;8.186;2023-05-10T14:52:39;1.38;;;1.10;;
21175;SDS011;10746;50.178;8.186;2023-05-10T14:55:07;1.40;;;1.00;;
21175;SDS011;10746;50.178;8.186;2023-05-10T14:57:34;1.30;;;1.00;;